Time;durP1;ratioP1;P1;durP2;ratioP2;P2;SDS_P1;SDS_P2;PMS_P1;PMS_P2;Temp;Humidity;BMP_temperature;BMP_pressure;BME280_temperature;BME280_humidity;BME280_pressure;Samples;Min_cycle;Max_cycle;Signal;HPM_P1;HPM_P2
2021/04/29 00:01:52;;;;;;;15.77;11.18;;;12.40;99.90;;;;;;4992573;28;20389;-52
2021/04/29 00:04:18;;;;;;;18.03;11.40;;;12.30;99.90;;;;;;4993330;28;20820;-52
2021/04/29 00:06:44;;;;;;;16.10;11.05;;;12.40;99.90;;;;;;4992336;28;20391;-52
2021/04/29 00:09:10;;;;;;;17.60;11.00;;;12.50;99.90;;;;;;4993150;28;20378;-52
2021/04/29 00:11:36;;;;;;;15.43;11.02;;;12.40;99.90;;;;;;4990937;28;20461;-52
2021/04/29 00:14:03;;;;;;;17.92;11.75;;;12.40;99.90;;;;;;4992927;28;20409;-52
2021/04/29 00:16:29;;;;;;;16.45;11.50;;;12.40;99.90;;;;;;4992281;28;20378;-55
2021/04/29 00:18:55;;;;;;;17.30;11.70;;;12.30;99.90;;;;;;4992684;28;20885;-52
2021/04/29 00:21:21;;;;;;;17.98;11.07;;;12.40;99.90;;;;;;4992610;28;20405;-52
2021/04/29 00:23:47;;;;;;;15.67;10.90;;;12.50;99.90;;;;;;4990758;28;20478;-52
2021/04/29 00:26:14;;;;;;;15.63;10.60;;;12.50;99.90;;;;;;4993270;28;20378;-52
2021/04/29 00:28:41;;;;;;;15.00;11.27;;;12.50;99.90;;;;;;4989558;28;20438;-52
2021/04/29 00:31:07;;;;;;;20.30;12.40;;;12.60;99.90;;;;;;4992574;28;20425;-52
2021/04/29 00:33:33;;;;;;;16.65;11.77;;;12.60;99.90;;;;;;4991831;28;20416;-52
2021/04/29 00:36:00;;;;;;;16.33;11.70;;;12.60;99.90;;;;;;4992792;28;20880;-52
2021/04/29 00:38:30;;;;;;;16.02;11.60;;;12.70;99.90;;;;;;4992369;28;20418;-52
2021/04/29 00:40:56;;;;;;;18.23;12.20;;;12.70;99.90;;;;;;4991748;28;20417;-55
2021/04/29 00:43:22;;;;;;;18.80;12.00;;;12.70;99.90;;;;;;4992502;28;20420;-53
2021/04/29 00:45:48;;;;;;;16.77;11.93;;;12.70;99.90;;;;;;4991740;28;20395;-52
2021/04/29 00:48:14;;;;;;;18.40;11.80;;;12.70;99.90;;;;;;4992522;28;20485;-52
2021/04/29 00:50:40;;;;;;;15.93;10.50;;;12.70;99.90;;;;;;4991161;28;20415;-52
2021/04/29 00:53:06;;;;;;;16.30;9.98;;;12.80;99.90;;;;;;4992127;28;20824;-52
2021/04/29 00:55:33;;;;;;;13.60;9.52;;;12.80;99.90;;;;;;4991640;28;20387;-53
2021/04/29 00:57:59;;;;;;;14.73;9.73;;;12.80;99.90;;;;;;4992324;28;20387;-52
2021/04/29 01:00:25;;;;;;;14.32;9.45;;;12.80;99.90;;;;;;4991929;28;20410;-52
2021/04/29 01:02:59;;;;;;;13.40;9.03;;;12.90;99.90;;;;;;4991256;28;20446;-52
2021/04/29 01:05:29;;;;;;;14.60;9.63;;;12.90;99.90;;;;;;4992288;28;20399;-52
2021/04/29 01:08:01;;;;;;;15.40;9.45;;;13.00;99.90;;;;;;4991289;28;20402;-52
2021/04/29 01:10:33;;;;;;;13.77;9.70;;;13.10;99.90;;;;;;4991965;28;20893;-52
2021/04/29 01:13:01;;;;;;;14.93;10.27;;;13.10;99.90;;;;;;4991020;28;20787;-52
2021/04/29 01:15:27;;;;;;;16.20;10.10;;;13.10;99.90;;;;;;4992100;28;20481;-52
2021/04/29 01:17:54;;;;;;;15.23;10.10;;;13.10;99.90;;;;;;4990902;28;20473;-52
2021/04/29 01:20:47;;;;;;;13.63;9.50;;;13.10;99.90;;;;;;4991992;28;20398;-52
2021/04/29 01:23:17;;;;;;;16.45;10.40;;;13.00;99.90;;;;;;4973628;28;20488;-52
2021/04/29 01:25:46;;;;;;;15.73;10.63;;;13.00;99.90;;;;;;4991062;28;20505;-52
2021/04/29 01:28:13;;;;;;;15.13;10.13;;;12.80;99.90;;;;;;4991787;28;20723;-52
2021/04/29 01:30:40;;;;;;;17.05;10.77;;;12.80;99.90;;;;;;4990453;28;20465;-52
2021/04/29 01:33:07;;;;;;;19.17;10.60;;;12.80;99.90;;;;;;4991572;28;20866;-52
2021/04/29 01:35:33;;;;;;;17.40;10.73;;;12.70;99.90;;;;;;4990931;28;20394;-53
2021/04/29 01:37:59;;;;;;;15.70;10.60;;;12.70;99.90;;;;;;4991263;28;20382;-51
2021/04/29 01:40:25;;;;;;;16.50;11.48;;;12.70;99.90;;;;;;4991133;28;20426;-52
2021/04/29 01:42:51;;;;;;;18.30;11.77;;;12.70;99.90;;;;;;4990719;28;20385;-51
2021/04/29 01:45:18;;;;;;;17.13;12.30;;;12.80;99.90;;;;;;4990133;28;20394;-51
2021/04/29 01:47:44;;;;;;;18.25;12.07;;;12.90;99.90;;;;;;4990403;28;20877;-52
2021/04/29 01:50:11;;;;;;;18.40;12.60;;;13.00;99.90;;;;;;4991200;28;20419;-52
2021/04/29 01:52:37;;;;;;;19.95;12.40;;;12.90;99.90;;;;;;4990634;28;20379;-52
2021/04/29 01:55:04;;;;;;;17.27;12.43;;;13.00;99.90;;;;;;4991262;28;20406;-52
2021/04/29 01:57:30;;;;;;;18.25;12.05;;;13.00;99.90;;;;;;4991041;28;20489;-56
2021/04/29 01:59:56;;;;;;;18.30;12.40;;;13.00;99.90;;;;;;4990507;28;20391;-51
2021/04/29 02:02:26;;;;;;;19.73;13.43;;;13.00;99.90;;;;;;4991079;28;20795;-52
2021/04/29 02:04:52;;;;;;;17.70;12.18;;;13.00;99.90;;;;;;4990395;28;20990;-51
2021/04/29 02:07:18;;;;;;;21.20;13.88;;;12.90;99.90;;;;;;4991148;28;20433;-51
2021/04/29 02:09:44;;;;;;;19.30;13.20;;;12.90;99.90;;;;;;4988940;28;20410;-52
2021/04/29 02:12:11;;;;;;;21.55;13.15;;;12.80;99.90;;;;;;4991440;28;20881;-52
2021/04/29 02:14:52;;;;;;;21.00;13.90;;;12.80;99.90;;;;;;4990218;28;20854;-52
2021/04/29 02:17:41;;;;;;;20.98;14.55;;;12.90;99.90;;;;;;4990958;28;20443;-52
2021/04/29 02:20:08;;;;;;;22.40;14.87;;;12.80;99.90;;;;;;4989678;28;20434;-51
2021/04/29 02:22:35;;;;;;;21.80;15.30;;;12.80;99.90;;;;;;4989823;28;20394;-54
2021/04/29 02:25:03;;;;;;;22.25;15.98;;;12.70;99.90;;;;;;4990114;28;20394;-51
2021/04/29 02:27:29;;;;;;;25.97;17.27;;;12.60;99.90;;;;;;4989450;28;20397;-51
2021/04/29 02:29:55;;;;;;;27.88;18.40;;;12.50;99.90;;;;;;4989902;28;20849;-51
2021/04/29 02:32:21;;;;;;;26.90;18.45;;;12.50;99.90;;;;;;4989310;28;20379;-52
2021/04/29 02:34:46;;;;;;;25.90;17.27;;;12.60;99.90;;;;;;4989795;28;20437;-52
2021/04/29 02:37:16;;;;;;;27.88;17.85;;;12.60;99.90;;;;;;4990550;28;20436;-51
2021/04/29 02:39:42;;;;;;;27.73;18.60;;;12.70;99.90;;;;;;4989891;28;20390;-52
2021/04/29 02:42:08;;;;;;;29.10;17.55;;;12.70;99.90;;;;;;4990300;28;20414;-51
2021/04/29 02:44:35;;;;;;;26.15;18.00;;;12.60;99.90;;;;;;4989776;28;20382;-55
2021/04/29 02:47:02;;;;;;;27.13;16.80;;;12.60;99.90;;;;;;4989984;28;20394;-52
2021/04/29 02:49:28;;;;;;;21.57;14.60;;;12.40;99.90;;;;;;4990482;28;20390;-51
2021/04/29 02:51:54;;;;;;;24.95;15.00;;;9.30;99.90;;;;;;4989493;28;20417;-51
2021/04/29 02:54:22;;;;;;;23.63;14.93;;;12.00;99.90;;;;;;4990670;28;20386;-51
2021/04/29 02:56:47;;;;;;;20.08;12.15;;;12.10;99.90;;;;;;4989672;28;20387;-52
2021/04/29 02:59:13;;;;;;;14.90;9.63;;;12.00;99.90;;;;;;4990251;28;20409;-51
2021/04/29 03:01:41;;;;;;;14.00;7.70;;;11.90;99.90;;;;;;4989968;28;20900;-51
2021/04/29 03:04:07;;;;;;;12.82;7.40;;;11.80;99.90;;;;;;4990417;28;20923;-52
2021/04/29 03:06:35;;;;;;;12.17;6.93;;;11.70;99.90;;;;;;4988691;28;20395;-56
2021/04/29 03:09:01;;;;;;;10.40;6.50;;;11.80;99.90;;;;;;4990407;28;20386;-51
2021/04/29 03:11:27;;;;;;;10.50;6.50;;;11.70;99.90;;;;;;4990232;28;20426;-51
2021/04/29 03:13:53;;;;;;;9.02;5.60;;;11.70;99.90;;;;;;4989496;28;20674;-51
2021/04/29 03:16:19;;;;;;;8.77;5.20;;;11.70;99.90;;;;;;4990134;28;20821;-51
2021/04/29 03:18:44;;;;;;;8.38;5.50;;;11.70;99.90;;;;;;4989052;28;20387;-51
2021/04/29 03:21:11;;;;;;;8.20;4.80;;;11.60;99.90;;;;;;4990235;28;20433;-51
2021/04/29 03:23:37;;;;;;;7.60;3.72;;;11.70;99.90;;;;;;4989616;28;20840;-51
2021/04/29 03:26:03;;;;;;;6.78;3.60;;;11.50;99.90;;;;;;4990202;28;20441;-51
2021/04/29 03:28:29;;;;;;;5.07;2.88;;;11.50;99.90;;;;;;4989087;28;20457;-51
2021/04/29 03:30:56;;;;;;;5.37;3.03;;;11.40;99.90;;;;;;4992423;28;21179;-52
2021/04/29 03:33:21;;;;;;;5.97;3.00;;;11.50;99.90;;;;;;4990182;28;20746;-52
2021/04/29 03:35:47;;;;;;;4.83;2.53;;;11.40;99.90;;;;;;4990171;28;20378;-52
2021/04/29 03:38:13;;;;;;;5.28;2.90;;;11.40;99.90;;;;;;4994186;28;20460;-52
2021/04/29 03:40:38;;;;;;;4.60;2.40;;;11.40;99.90;;;;;;4992677;28;20476;-52
2021/04/29 03:43:05;;;;;;;5.15;2.47;;;11.30;99.90;;;;;;4993775;28;20422;-50
2021/04/29 03:45:31;;;;;;;4.43;2.20;;;11.20;99.90;;;;;;4994180;28;20386;-50
2021/04/29 03:47:57;;;;;;;5.80;2.60;;;11.30;99.90;;;;;;4992692;28;20432;-52
2021/04/29 03:50:23;;;;;;;4.70;2.50;;;11.20;99.90;;;;;;4993639;28;20410;-52
2021/04/29 03:52:49;;;;;;;5.23;2.20;;;11.30;99.90;;;;;;4992988;28;20382;-51
2021/04/29 03:55:15;;;;;;;4.70;2.53;;;11.20;99.90;;;;;;4993133;28;20854;-52
2021/04/29 03:57:42;;;;;;;4.97;2.70;;;11.40;99.90;;;;;;4992842;28;20390;-52
2021/04/29 04:00:09;;;;;;;5.10;2.80;;;11.40;99.90;;;;;;4992248;28;20482;-52
2021/04/29 04:02:35;;;;;;;4.90;2.90;;;11.40;99.90;;;;;;4992758;28;20471;-55
2021/04/29 04:05:01;;;;;;;4.50;2.42;;;11.30;99.90;;;;;;4993177;28;20390;-52
2021/04/29 04:07:26;;;;;;;4.60;2.60;;;11.30;99.90;;;;;;4993541;28;20823;-52
2021/04/29 04:09:52;;;;;;;6.43;3.27;;;11.10;99.90;;;;;;4992356;28;20386;-52
2021/04/29 04:12:17;;;;;;;6.00;2.90;;;11.00;99.90;;;;;;5000286;28;20418;-53
2021/04/29 04:14:43;;;;;;;6.47;2.90;;;11.20;99.90;;;;;;5001926;28;20740;-52
2021/04/29 04:17:09;;;;;;;5.35;2.70;;;11.20;99.90;;;;;;5002685;28;20808;-52
2021/04/29 04:19:34;;;;;;;5.30;2.80;;;11.20;99.90;;;;;;5001703;28;20389;-56
2021/04/29 04:22:00;;;;;;;5.53;2.60;;;11.40;99.90;;;;;;5002061;28;20720;-52
2021/04/29 04:24:25;;;;;;;6.37;2.70;;;11.30;99.90;;;;;;5000074;28;20423;-53
2021/04/29 04:26:51;;;;;;;5.60;2.33;;;11.20;99.90;;;;;;5001183;28;20834;-52
2021/04/29 04:29:17;;;;;;;5.40;3.05;;;11.30;99.90;;;;;;5001652;28;21006;-52
2021/04/29 04:31:43;;;;;;;6.20;2.80;;;11.20;99.90;;;;;;4999235;28;20417;-52
2021/04/29 04:34:08;;;;;;;5.65;2.80;;;11.30;99.90;;;;;;4999614;28;20430;-52
2021/04/29 04:36:34;;;;;;;4.80;2.50;;;11.30;99.90;;;;;;5002687;28;20937;-56
2021/04/29 04:39:02;;;;;;;5.97;2.80;;;11.40;99.90;;;;;;5002453;28;20774;-52
2021/04/29 04:41:28;;;;;;;6.00;3.03;;;11.40;99.90;;;;;;5002627;28;20775;-52
2021/04/29 04:43:54;;;;;;;6.10;3.10;;;11.40;99.90;;;;;;4992088;28;21038;-52
2021/04/29 04:46:19;;;;;;;7.90;3.40;;;11.60;99.90;;;;;;4992335;28;20395;-52
2021/04/29 04:48:45;;;;;;;5.63;3.00;;;11.60;99.90;;;;;;4990701;28;20434;-52
2021/04/29 04:51:11;;;;;;;5.30;2.93;;;11.60;99.90;;;;;;4992443;28;20469;-52
2021/04/29 04:53:36;;;;;;;6.70;3.40;;;11.60;99.90;;;;;;4991234;28;20390;-55
2021/04/29 04:56:02;;;;;;;7.73;3.20;;;11.70;99.90;;;;;;4992156;28;20390;-52
2021/04/29 04:58:28;;;;;;;6.43;3.00;;;11.80;99.90;;;;;;4993083;28;20391;-52
2021/04/29 05:00:53;;;;;;;5.63;2.45;;;12.00;99.90;;;;;;5001306;28;21079;-46
2021/04/29 05:03:19;;;;;;;6.83;2.73;;;12.60;99.90;;;;;;5010703;28;20397;-50
2021/04/29 05:05:45;;;;;;;5.40;2.40;;;13.40;99.90;;;;;;5009812;28;20389;-49
2021/04/29 05:08:11;;;;;;;5.05;2.38;;;14.00;99.90;;;;;;5010285;28;20746;-49
2021/04/29 05:10:37;;;;;;;4.95;2.00;;;14.70;99.90;;;;;;5009252;28;20436;-48
2021/04/29 05:13:04;;;;;;;5.37;2.23;;;15.10;99.90;;;;;;5010773;28;20396;-49
2021/04/29 05:15:31;;;;;;;4.43;2.00;;;15.40;99.90;;;;;;5010572;28;20472;-49
2021/04/29 05:17:57;;;;;;;5.50;2.25;;;15.40;99.90;;;;;;5009650;28;20685;-48
2021/04/29 05:20:23;;;;;;;5.03;2.20;;;16.00;99.90;;;;;;5010277;28;20447;-50
2021/04/29 05:22:50;;;;;;;4.60;2.17;;;16.30;99.90;;;;;;5007489;28;20530;-51
2021/04/29 05:25:16;;;;;;;4.40;2.00;;;16.90;99.90;;;;;;5010067;28;20446;-49
2021/04/29 05:27:42;;;;;;;6.25;2.30;;;17.30;99.90;;;;;;5013300;28;20400;-51
2021/04/29 05:30:08;;;;;;;5.10;2.03;;;18.00;99.90;;;;;;4999951;28;20413;-48
2021/04/29 05:32:34;;;;;;;4.70;2.10;;;18.30;99.90;;;;;;5002728;28;20435;-57
2021/04/29 05:34:59;;;;;;;6.10;2.30;;;17.70;99.90;;;;;;5002285;28;20469;-50
2021/04/29 05:37:25;;;;;;;5.20;2.38;;;16.70;99.90;;;;;;5001772;28;20761;-48
2021/04/29 05:39:52;;;;;;;5.20;2.30;;;16.20;99.90;;;;;;5004822;28;20527;-51
2021/04/29 05:42:18;;;;;;;6.35;2.28;;;15.40;99.90;;;;;;5010241;28;20934;-51
2021/04/29 05:44:44;;;;;;;5.13;2.25;;;14.90;99.90;;;;;;5010136;28;20393;-51
2021/04/29 05:47:10;;;;;;;5.28;2.40;;;14.40;99.90;;;;;;5007334;28;20492;-51
2021/04/29 05:49:35;;;;;;;5.07;2.33;;;14.40;99.90;;;;;;5008328;28;20396;-60
2021/04/29 05:52:01;;;;;;;5.87;2.63;;;14.50;99.90;;;;;;5008292;28;20419;-51
2021/04/29 05:54:27;;;;;;;5.05;2.30;;;14.60;99.90;;;;;;5013003;28;20808;-51
2021/04/29 05:56:54;;;;;;;7.13;2.50;;;14.30;99.90;;;;;;5026099;28;20418;-51
2021/04/29 05:59:20;;;;;;;5.07;2.40;;;14.30;99.90;;;;;;5011079;28;20393;-52
2021/04/29 06:01:46;;;;;;;8.10;3.20;;;14.50;99.90;;;;;;5013529;28;20406;-51
2021/04/29 06:04:11;;;;;;;6.70;3.20;;;15.00;99.90;;;;;;5029595;28;20386;-51
2021/04/29 06:06:37;;;;;;;5.27;2.80;;;15.40;99.90;;;;;;5029056;28;20481;-51
2021/04/29 06:09:03;;;;;;;6.60;3.25;;;16.00;99.90;;;;;;5029581;28;20475;-51
2021/04/29 06:11:29;;;;;;;6.78;3.20;;;16.30;99.90;;;;;;5016113;28;20440;-51
2021/04/29 06:13:55;;;;;;;6.07;3.30;;;16.10;99.90;;;;;;5009316;28;20373;-52
2021/04/29 06:16:21;;;;;;;8.20;2.90;;;15.90;99.90;;;;;;5010656;28;20395;-51
2021/04/29 06:18:46;;;;;;;8.70;3.50;;;16.20;99.90;;;;;;5009114;28;20376;-51
2021/04/29 06:21:12;;;;;;;6.90;3.50;;;16.60;99.90;;;;;;5009893;28;20491;-51
2021/04/29 06:23:37;;;;;;;8.05;3.60;;;16.40;99.90;;;;;;5009132;28;20388;-52
2021/04/29 06:26:03;;;;;;;8.20;3.90;;;17.00;99.90;;;;;;5009922;28;20388;-51
2021/04/29 06:28:29;;;;;;;6.70;4.03;;;16.70;99.90;;;;;;5022761;28;20837;-52
2021/04/29 06:30:55;;;;;;;7.22;4.10;;;16.30;99.90;;;;;;5028572;28;20639;-51
2021/04/29 06:33:23;;;;;;;7.10;4.27;;;16.00;99.90;;;;;;5029483;28;20392;-50
2021/04/29 06:35:50;;;;;;;7.43;3.70;;;15.10;99.90;;;;;;5028591;28;20387;-50
2021/04/29 06:38:16;;;;;;;7.80;3.73;;;14.90;99.90;;;;;;5029508;28;20987;-50
2021/04/29 06:40:42;;;;;;;8.35;4.20;;;15.20;99.90;;;;;;5028267;28;20510;-51
2021/04/29 06:43:07;;;;;;;6.57;3.83;;;15.30;99.90;;;;;;5029710;28;20375;-51
2021/04/29 06:45:33;;;;;;;7.57;3.90;;;15.70;99.90;;;;;;5029442;28;20390;-60
2021/04/29 06:47:59;;;;;;;7.78;3.97;;;16.00;99.90;;;;;;5029042;28;20710;-51
2021/04/29 06:50:24;;;;;;;10.53;3.87;;;16.50;99.90;;;;;;5029175;28;20797;-51
2021/04/29 06:52:50;;;;;;;8.53;4.10;;;16.70;99.90;;;;;;5028986;28;20379;-51
2021/04/29 06:55:16;;;;;;;6.75;3.85;;;16.40;99.90;;;;;;5028791;28;20849;-51
2021/04/29 06:57:41;;;;;;;10.57;4.28;;;16.00;99.90;;;;;;5028257;28;20391;-51
2021/04/29 07:00:07;;;;;;;8.80;4.80;;;15.90;99.90;;;;;;5029173;28;20501;-50
2021/04/29 07:02:33;;;;;;;9.27;4.22;;;15.20;99.90;;;;;;5016492;28;20400;-58
2021/04/29 07:04:59;;;;;;;10.65;4.53;;;14.60;99.90;;;;;;5008362;28;20381;-53
2021/04/29 07:07:25;;;;;;;9.63;4.00;;;14.60;99.90;;;;;;5009928;28;20413;-51
2021/04/29 07:09:51;;;;;;;8.30;4.50;;;15.10;99.90;;;;;;5008312;28;20421;-51
2021/04/29 07:12:16;;;;;;;8.00;4.53;;;15.30;99.90;;;;;;5013372;28;20716;-51
2021/04/29 07:14:43;;;;;;;7.40;4.00;;;15.30;99.90;;;;;;5012574;28;20400;-51
2021/04/29 07:17:10;;;;;;;8.90;4.20;;;15.70;99.90;;;;;;5013288;28;20388;-51
2021/04/29 07:19:35;;;;;;;8.50;5.30;;;16.00;99.90;;;;;;5013063;28;20396;-60
2021/04/29 07:22:01;;;;;;;9.02;5.00;;;15.40;99.90;;;;;;5012860;28;20380;-51
2021/04/29 07:24:27;;;;;;;9.87;4.60;;;15.10;99.90;;;;;;5012478;28;20712;-51
2021/04/29 07:26:52;;;;;;;8.68;4.80;;;15.00;99.90;;;;;;5012632;28;20384;-51
2021/04/29 07:29:18;;;;;;;8.75;4.55;;;14.90;99.90;;;;;;5012903;28;20757;-51
2021/04/29 07:31:44;;;;;;;11.70;4.60;;;14.90;99.90;;;;;;5011679;28;20419;-51
2021/04/29 07:34:11;;;;;;;7.95;4.70;;;14.80;99.90;;;;;;5012357;28;20484;-51
2021/04/29 07:36:36;;;;;;;8.33;4.77;;;14.80;99.90;;;;;;5012105;28;20527;-51
2021/04/29 07:39:04;;;;;;;8.43;4.80;;;14.60;99.90;;;;;;5013253;28;20479;-51
2021/04/29 07:41:30;;;;;;;10.05;5.18;;;15.10;99.90;;;;;;5012114;28;20803;-51
2021/04/29 07:43:57;;;;;;;10.15;5.25;;;15.40;99.90;;;;;;5012139;28;20543;-51
2021/04/29 07:46:23;;;;;;;12.68;5.70;;;15.50;99.90;;;;;;5012909;28;20405;-51
2021/04/29 07:48:49;;;;;;;7.70;4.73;;;15.70;99.90;;;;;;5011796;28;20411;-51
2021/04/29 07:51:15;;;;;;;10.55;4.47;;;16.60;99.90;;;;;;5012275;28;20412;-49
2021/04/29 07:53:41;;;;;;;8.23;4.95;;;18.20;99.90;;;;;;5011630;28;20415;-49
2021/04/29 07:56:06;;;;;;;9.50;4.82;;;19.40;99.90;;;;;;5012608;28;20864;-52
2021/04/29 07:58:32;;;;;;;7.37;4.60;;;19.40;99.90;;;;;;5012486;28;20461;-49
2021/04/29 08:00:58;;;;;;;9.70;5.50;;;19.40;99.90;;;;;;5011108;28;20668;-50
2021/04/29 08:03:23;;;;;;;10.07;5.15;;;19.50;99.90;;;;;;5031320;28;20379;-51
2021/04/29 08:05:50;;;;;;;8.95;5.10;;;19.80;99.90;;;;;;5030906;28;20475;-53
2021/04/29 08:08:16;;;;;;;14.45;6.13;;;20.20;99.90;;;;;;5031735;28;20475;-49
2021/04/29 08:10:42;;;;;;;10.57;5.97;;;19.60;99.90;;;;;;5031242;28;20480;-50
2021/04/29 08:13:10;;;;;;;9.80;6.45;;;20.00;99.90;;;;;;5030692;28;20399;-50
2021/04/29 08:15:36;;;;;;;9.05;5.90;;;20.10;99.90;;;;;;5031727;28;20376;-58
2021/04/29 08:18:02;;;;;;;9.93;6.18;;;22.40;99.30;;;;;;5031559;28;20371;-49
2021/04/29 08:20:28;;;;;;;8.60;5.97;;;21.50;98.00;;;;;;5031458;28;20395;-51
2021/04/29 08:22:54;;;;;;;11.00;6.60;;;21.50;95.60;;;;;;5029583;28;20415;-50
2021/04/29 08:25:20;;;;;;;10.15;6.38;;;21.00;96.90;;;;;;5031364;28;20872;-50
2021/04/29 08:27:45;;;;;;;10.90;6.70;;;20.30;96.10;;;;;;5030530;28;20459;-50
2021/04/29 08:30:13;;;;;;;10.23;6.32;;;19.50;97.00;;;;;;5031403;28;20418;-49
2021/04/29 08:32:39;;;;;;;10.48;6.30;;;18.50;99.90;;;;;;5030209;28;20435;-63
2021/04/29 08:35:05;;;;;;;10.73;6.70;;;17.10;99.90;;;;;;5031378;28;20885;-54
2021/04/29 08:37:31;;;;;;;9.75;6.57;;;17.00;99.90;;;;;;5031791;28;20371;-54
2021/04/29 08:39:56;;;;;;;10.70;6.07;;;17.30;99.90;;;;;;5031096;28;20390;-50
2021/04/29 08:42:26;;;;;;;12.77;6.78;;;18.50;99.90;;;;;;5029643;28;20506;-49
2021/04/29 08:44:52;;;;;;;10.60;6.63;;;19.00;99.90;;;;;;5029102;28;20398;-50
2021/04/29 08:47:18;;;;;;;11.20;6.90;;;18.90;99.90;;;;;;5029347;28;20392;-50
2021/04/29 08:49:44;;;;;;;13.77;7.73;;;18.80;99.90;;;;;;5028954;28;20487;-50
2021/04/29 08:52:09;;;;;;;13.70;8.23;;;18.60;99.90;;;;;;5030946;28;20399;-50
2021/04/29 08:54:38;;;;;;;12.75;8.27;;;17.80;99.90;;;;;;5031697;28;20462;-49
2021/04/29 08:57:05;;;;;;;14.05;7.90;;;17.30;99.90;;;;;;5030658;28;20506;-49
2021/04/29 08:59:31;;;;;;;12.85;8.48;;;17.10;99.90;;;;;;5031335;28;20390;-51
2021/04/29 09:01:57;;;;;;;12.97;8.33;;;16.60;99.90;;;;;;5022886;28;20396;-51
2021/04/29 09:04:23;;;;;;;13.27;8.63;;;16.30;99.90;;;;;;5009953;28;20399;-51
2021/04/29 09:06:49;;;;;;;17.80;9.25;;;16.20;99.90;;;;;;5010550;28;20410;-51
2021/04/29 09:09:18;;;;;;;16.02;8.68;;;16.10;99.90;;;;;;5011516;28;20928;-51
2021/04/29 09:12:02;;;;;;;13.30;9.20;;;16.10;99.90;;;;;;5010250;28;20443;-51
2021/04/29 09:14:33;;;;;;;13.00;8.97;;;15.90;99.90;;;;;;5005599;28;20991;-52
2021/04/29 09:16:59;;;;;;;12.10;8.43;;;15.90;99.90;;;;;;5010176;28;20388;-51
2021/04/29 09:19:29;;;;;;;14.43;8.48;;;15.80;99.90;;;;;;5011079;28;20400;-57
2021/04/29 09:21:57;;;;;;;15.32;9.07;;;15.40;99.90;;;;;;5007398;28;20451;-51
2021/04/29 09:24:32;;;;;;;18.65;9.90;;;15.10;99.90;;;;;;5010598;28;20404;-50
2021/04/29 09:27:13;;;;;;;20.83;11.27;;;14.70;99.90;;;;;;5009838;28;20418;-59
2021/04/29 09:29:57;;;;;;;15.63;10.50;;;14.60;99.90;;;;;;5010543;28;20388;-60
2021/04/29 09:32:34;;;;;;;17.00;11.95;;;14.60;99.90;;;;;;5011051;28;20519;-50
2021/04/29 09:35:03;;;;;;;15.05;10.40;;;14.70;99.90;;;;;;5009331;28;20489;-54
2021/04/29 09:37:36;;;;;;;15.68;10.55;;;14.80;99.90;;;;;;5010720;28;20557;-50
2021/04/29 09:40:05;;;;;;;15.93;10.10;;;14.80;99.90;;;;;;5009855;28;20401;-50
2021/04/29 09:42:33;;;;;;;14.47;10.33;;;14.90;99.90;;;;;;5010876;28;20413;-49
2021/04/29 09:45:00;;;;;;;17.65;10.40;;;14.90;99.90;;;;;;5009918;28;20460;-49
2021/04/29 09:47:26;;;;;;;15.35;10.40;;;15.30;99.90;;;;;;5010295;28;20462;-50
2021/04/29 09:49:52;;;;;;;15.07;10.27;;;15.70;99.90;;;;;;5009841;28;20377;-49
2021/04/29 09:52:20;;;;;;;15.40;10.25;;;16.10;99.90;;;;;;5010354;28;20943;-50
2021/04/29 09:54:46;;;;;;;13.77;9.20;;;16.60;99.90;;;;;;5010076;28;20921;-49
2021/04/29 09:57:17;;;;;;;12.98;8.90;;;17.30;99.90;;;;;;5010543;28;20512;-50
2021/04/29 09:59:47;;;;;;;15.82;8.90;;;18.20;99.90;;;;;;5009909;28;20856;-50
2021/04/29 10:02:14;;;;;;;14.77;8.98;;;18.40;99.90;;;;;;5018311;28;20407;-49
2021/04/29 10:04:40;;;;;;;12.63;8.00;;;18.60;99.90;;;;;;5029370;28;20399;-61
2021/04/29 10:07:08;;;;;;;10.55;8.10;;;19.20;99.90;;;;;;5029510;28;20394;-52
2021/04/29 10:09:35;;;;;;;12.40;8.30;;;19.20;99.90;;;;;;5029637;28;20468;-49
2021/04/29 10:12:08;;;;;;;12.70;8.13;;;18.90;99.90;;;;;;5028828;28;20501;-49
2021/04/29 10:14:38;;;;;;;12.10;8.63;;;18.60;99.90;;;;;;5028337;28;20395;-49
2021/04/29 10:17:09;;;;;;;11.80;7.57;;;18.60;99.90;;;;;;5028870;28;20378;-49
2021/04/29 10:19:41;;;;;;;11.20;8.32;;;18.40;99.90;;;;;;5029762;28;20803;-49
2021/04/29 10:22:07;;;;;;;12.52;8.15;;;18.60;99.90;;;;;;5029277;28;20474;-49
2021/04/29 10:24:35;;;;;;;11.57;8.13;;;19.10;99.90;;;;;;5029005;28;20793;-49
2021/04/29 10:27:06;;;;;;;13.70;8.10;;;18.80;99.90;;;;;;5028595;28;20383;-49
2021/04/29 10:29:32;;;;;;;13.75;8.35;;;18.50;99.90;;;;;;5029303;28;20394;-49
2021/04/29 10:31:59;;;;;;;14.68;8.75;;;17.90;99.90;;;;;;5028097;28;20493;-50
2021/04/29 10:34:41;;;;;;;11.60;7.90;;;17.60;99.90;;;;;;5028112;28;20403;-51
2021/04/29 10:37:33;;;;;;;13.38;9.10;;;17.70;99.90;;;;;;5029142;28;20407;-50
2021/04/29 10:40:03;;;;;;;13.18;8.75;;;19.10;99.90;;;;;;5022780;28;20396;-50
2021/04/29 10:42:42;;;;;;;14.65;9.30;;;18.00;99.90;;;;;;5029547;28;20451;-51
2021/04/29 10:45:10;;;;;;;12.43;7.65;;;17.90;99.90;;;;;;5027854;28;20391;-50
2021/04/29 10:47:37;;;;;;;13.30;6.20;;;16.00;99.90;;;;;;5028947;28;20402;-50
2021/04/29 10:50:17;;;;;;;10.32;5.10;;;15.20;99.90;;;;;;5028135;28;20476;-50
2021/04/29 10:52:50;;;;;;;9.90;5.53;;;13.90;99.90;;;;;;5026819;28;20734;-60
2021/04/29 10:55:29;;;;;;;10.27;5.78;;;13.30;99.90;;;;;;5027364;28;20462;-50
2021/04/29 10:57:56;;;;;;;10.60;5.70;;;13.40;99.90;;;;;;5028151;28;20942;-50
2021/04/29 11:00:25;;;;;;;12.40;5.70;;;13.10;99.90;;;;;;5029305;28;20387;-50
2021/04/29 11:02:58;;;;;;;9.93;5.90;;;13.50;99.90;;;;;;5013123;28;20388;-50
2021/04/29 11:05:25;;;;;;;9.00;5.80;;;13.40;99.90;;;;;;5007607;28;20671;-50
2021/04/29 11:07:52;;;;;;;9.00;5.50;;;13.30;99.90;;;;;;5008084;28;20381;-53
2021/04/29 11:10:19;;;;;;;11.30;6.50;;;13.40;99.90;;;;;;5007618;28;20737;-51
2021/04/29 11:12:56;;;;;;;10.05;5.88;;;13.40;99.90;;;;;;5007957;28;20385;-50
2021/04/29 11:15:28;;;;;;;10.27;6.20;;;13.10;99.90;;;;;;5008929;28;20373;-50
2021/04/29 11:18:08;;;;;;;11.07;6.10;;;12.90;99.90;;;;;;5008331;28;20404;-50
2021/04/29 11:20:54;;;;;;;10.45;6.05;;;13.00;99.90;;;;;;5009009;28;20450;-50
2021/04/29 11:23:46;;;;;;;10.30;6.10;;;13.30;99.90;;;;;;5008783;28;20391;-50
2021/04/29 11:26:15;;;;;;;9.48;5.60;;;13.30;99.90;;;;;;5006913;28;20397;-50
2021/04/29 11:28:42;;;;;;;8.85;5.30;;;13.20;99.90;;;;;;5008229;28;20411;-61
2021/04/29 11:31:08;;;;;;;11.53;5.50;;;13.30;99.90;;;;;;5008406;28;20401;-51
2021/04/29 11:33:39;;;;;;;9.43;5.90;;;13.40;99.90;;;;;;5008826;28;20377;-50
2021/04/29 11:36:23;;;;;;;10.43;6.00;;;13.70;99.90;;;;;;5006691;28;20481;-50
2021/04/29 11:38:51;;;;;;;9.95;6.10;;;13.70;99.90;;;;;;5007834;28;20392;-50
2021/04/29 11:41:17;;;;;;;11.77;6.70;;;13.60;99.90;;;;;;5008534;28;20420;-50
2021/04/29 11:43:42;;;;;;;10.35;6.03;;;13.80;99.90;;;;;;5007028;28;20446;-59
2021/04/29 11:46:22;;;;;;;9.70;5.30;;;14.00;99.90;;;;;;5008202;28;20780;-50
2021/04/29 11:49:01;;;;;;;9.67;4.63;;;13.90;99.90;;;;;;5007957;28;20388;-50
2021/04/29 11:51:28;;;;;;;7.83;4.23;;;13.60;99.90;;;;;;5008709;28;20443;-50
2021/04/29 11:54:02;;;;;;;8.73;4.80;;;13.70;99.90;;;;;;5008310;28;20386;-50
2021/04/29 11:56:38;;;;;;;8.50;5.07;;;13.80;99.90;;;;;;5009413;28;20414;-52
2021/04/29 11:59:04;;;;;;;8.13;4.87;;;14.10;99.90;;;;;;5011475;28;20438;-50
2021/04/29 12:01:31;;;;;;;8.10;4.40;;;14.80;99.90;;;;;;5015897;28;20827;-51
2021/04/29 12:03:57;;;;;;;9.98;5.75;;;15.00;99.90;;;;;;5031670;28;20423;-51
2021/04/29 12:06:23;;;;;;;8.32;4.75;;;15.00;99.90;;;;;;5014135;28;20434;-51
2021/04/29 12:08:49;;;;;;;10.83;4.83;;;15.20;99.90;;;;;;5031231;28;20398;-51
2021/04/29 12:11:15;;;;;;;7.97;4.00;;;15.40;99.90;;;;;;5032027;28;20414;-50
2021/04/29 12:13:41;;;;;;;7.82;4.50;;;15.60;99.90;;;;;;5013901;28;20403;-60
2021/04/29 12:16:18;;;;;;;10.40;5.20;;;15.40;99.90;;;;;;5031368;28;20811;-53
2021/04/29 12:18:50;;;;;;;8.73;4.68;;;15.20;99.90;;;;;;5031259;28;20410;-50
2021/04/29 12:21:17;;;;;;;8.70;5.40;;;15.00;99.90;;;;;;5032176;28;20466;-50
2021/04/29 12:23:44;;;;;;;10.55;6.50;;;15.40;99.90;;;;;;5031024;28;20393;-56
2021/04/29 12:26:11;;;;;;;9.48;5.80;;;15.20;99.90;;;;;;5031846;28;20441;-50
2021/04/29 12:28:39;;;;;;;10.48;6.20;;;14.90;99.90;;;;;;5031458;28;20406;-51
2021/04/29 12:31:19;;;;;;;10.55;6.22;;;15.10;99.90;;;;;;5030844;28;20403;-49
2021/04/29 12:34:06;;;;;;;11.27;6.50;;;14.80;99.90;;;;;;5031134;28;20507;-62
2021/04/29 12:36:47;;;;;;;12.60;7.07;;;14.60;99.90;;;;;;5031740;28;20433;-48
2021/04/29 12:39:17;;;;;;;12.63;7.68;;;14.40;99.90;;;;;;5015495;28;20806;-47
2021/04/29 12:41:46;;;;;;;12.60;6.72;;;14.10;99.90;;;;;;5030969;28;20422;-58